Florida AWOS List, Phone Numbers

USA |  
| Search AWOS

Rocky Mountain States: Montana | Wyoming | Colorado | New Mexico

Complete weather reports: Florida

Legend: KFNL = METAR available Follow your local AWOS on AV Mobile = METAR available on AV Mobile
Station Florida Location Frequency Phone
KAQQICAO ID KAQQ Apalachicola, Apalachicola
KAAFFAA ID AAF, ASOS, KAAF 272353Z AUTO 31005KT 10SM FEW060 28/20 A2993 Follow KAAF on AV Mobile APALACHICOLA MUNICIPAL AIRPORT 119.925 850-653-8271
KNAEICAO ID KNAE Astor, Bombing Range Detachment Astor
KAVOFAA ID AVO, AWOS-3 AVON PARK 118.725 863-453-4223
KAGRFAA ID AGR Avon Park Gunnery Range
KBOWFAA ID BOW, AWOS-3, KBOW 272355Z AUTO 00000KT 10SM CLR 26/23 A2996 RMK AO2 Follow KBOW on AV Mobile Bartow Municipal 123.775 863-533-9004
F95FAA ID F95, AWOS-AV, KDUC 280005Z AUTO 15003KT 10SM 39/08 A2990 Follow  on AV Mobile BLOUNTSTOWN 119.350 850-674-1347
KBCTFAA ID BCT, AWOS-3, KBCT 272245Z 00000KT 10SM CLR 24/22 A2994 RMK LTG DSNT NE AND SW. Follow KBCT on AV Mobile Boca Raton, Boca Raton Airport 121.125 561-391-2696
K1J0FAA ID 1J0, K1J0 272358Z AUTO 00000KT 10SM CLR 27/22 A2993 RMK AO2 SLP092 T02670217 10339 20267 53006 Follow K1J0 on AV Mobile TRI COUNTY AIRPORT
KBKVFAA ID BKV, ASOS, KBKV 272353Z AUTO 12003KT 10SM CLR 27/24 A2994 RMK AO2 SLP136 T02720239 10300 20272 51008 Follow KBKV on AV Mobile BROOKSVILLE HERNANDO CO AIRPORT 134.725 352-799-5881
K1J4ICAO ID K1J4 Cape San Blas Coast Guard Station
KNZCICAO ID KNZC Cecil, Naval Air Station
KCLWFAA ID CLW, AWOS-3P, KCLW 272355Z AUTO 13003KT 10SM CLR 27/23 A2993 RMK AO2 Follow KCLW on AV Mobile CLEARWATER 119.225 727-449-2184
2ISFAA ID 2IS, AWOS-3, KDUC 280005Z AUTO 15003KT 10SM 39/08 A2990 Follow  on AV Mobile CLEWISTON 124.175 863-983-7020
KX53ICAO ID KX53 Clewiston
KCOFFAA ID COF, KCOF 272358Z AUTO 10003KT 10SM CLR 26/23 A2995 RMK AO2 SLP146 60121 T02590234 10292 20232 $ Follow KCOF on AV Mobile Cocoa / Patrick Air Force Base
KXMRFAA ID XMR, KXMR 272358Z AUTO 31004KT 10SM CLR 26/24 A2995 RMK AO2 SLP145 60013 T02580235 10336 20237 $ Follow KXMR on AV Mobile Cocoa Beach, Cape Canaveral Air Force Station Skid Strip
KCEWFAA ID CEW, ASOS, KCEW 272353Z AUTO 20005KT 10SM CLR 28/19 A2994 Follow KCEW on AV Mobile CRESTVIEW SIKES AIRPORT 119.275 850-682-1237
KEGIFAA ID EGI, KEGI 272355Z 21006KT 10SM FEW060 29/18 A2993 RMK AO2A SLP136 T02870178 10336 20287 53008 $ Follow KEGI on AV Mobile Duke Field / Eglin Auxiliary
KCTYFAA ID CTY, KCTY 272353Z AUTO 34003KT 26/23 A2992 Follow KCTY on AV Mobile CROSS CITY AIRPORT
KCGCFAA ID CGC, AWOS-3, KCGC 272355Z AUTO 15003KT 10SM BKN031 28/25 A2992 RMK AO2 LTG DSNT N Follow KCGC on AV Mobile CRYSTAL RIVER 118.325 352-563-6600
KDABFAA ID DAB, ASOS, KDAB 272353Z 00000KT 10SM FEW039 SCT150 BKN200 26/23 A2995 Follow KDAB on AV Mobile DAYTONA BEACH INTERNATIONAL 386-253-7469
54JFAA ID 54J, AWOS-3P, KDUC 280005Z AUTO 15003KT 10SM 39/08 A2990 Follow  on AV Mobile DEFUNIAK SPRINGS 118.725 850-892-0147
KDEDFAA ID DED, AWOS-3, KDED 272355Z AUTO 00000KT 26/23 A2995 RMK AO1 Follow KDED on AV Mobile DELAND 119.575 386-740-5811
KDTSFAA ID DTS, ASOS, KDTS 272353Z AUTO VRB05KT 10SM CLR 28/18 A2993 RMK AO2 SLP134 T02830178 10300 20283 53003 TSNO Follow KDTS on AV Mobile DESTIN-FT WALTON BEACH AIRPORT 133.925 850-654-7128
KX91ICAO ID KX91 Egmont Key Coast Guard Station
KFHBFAA ID FHB, AWOS-3, KFHB 272355Z AUTO 16004KT 10SM CLR 29/23 A2992 RMK AO1 LTG DSNT SW Follow KFHB on AV Mobile FERNANDINA BEACH 118.075 904-277-7323
KFXEFAA ID FXE, ASOS, KFXE 272353Z 10006KT 10SM CLR 27/23 A2994 Follow KFXE on AV Mobile FORT LAUDERDALE EXECUTIVE 954-772-2537
KFLLFAA ID FLL, ASOS, KFLL 272353Z 10010KT 10SM FEW028 FEW060 BKN250 28/24 A2994 Follow KFLL on AV Mobile FORT LAUDERDALE/HOLLYWOOD 954-359-7857
KFMYFAA ID FMY, ASOS, KFMY 272353Z 13003KT 10SM CLR 27/25 A2994 RMK AO2 SLP139 60015 T02720250 10294 20256 53007 Follow KFMY on AV Mobile FORT MYERS PAGE FIELD 239-936-2318
KRSWFAA ID RSW, ASOS, KRSW 272353Z AUTO 07009KT 10SM CLR 28/24 A2994 Follow KRSW on AV Mobile FORT MYERS SW FL INTERNATIONAL AIRPORT 239-561-0966
KX82ICAO ID KX82 Fort Pierce Coast Guard Station
KFPRFAA ID FPR, ASOS, KFPR 272353Z AUTO 00000KT 10SM CLR 25/24 A2995 Follow KFPR on AV Mobile FORT PIERCE ST LUCIE 772-489-4281
KX86ICAO ID KX86 Fowey Rocks Coast Guard Station
KX89ICAO ID KX89 Ft. Myers Beach Coast Guard Station
KGNVFAA ID GNV, ASOS, KGNV 280003Z 12004KT 10SM VCTS SCT032 SCT060 27/24 A2994 Follow KGNV on AV Mobile GAINESVILLE REGIONAL AIRPORT 352-335-8672
KHWOFAA ID HWO, ASOS, KHWO 272353Z 08007KT 10SM CLR 28/23 A2995 RMK AO2 SLP142 T02780228 10317 20278 55000 Follow KHWO on AV Mobile HOLLYWOOD NORTH PERRY AIRPORT 954-983-5904
X51FAA ID X51, AWOS-3, KDUC 280005Z AUTO 15003KT 10SM 39/08 A2990 Follow  on AV Mobile HOMESTEAD 118.375 (305) 247-2791
KHSTFAA ID HST, KHST 272358Z 13004KT 10SM SCT200 28/22 A2994 RMK AO2 SLP142 60000 T02800225 10322 20280 53001 Follow KHST on AV Mobile Homestead Air Force Base
KIMMFAA ID IMM, AWOS-3, KIMM 161355Z AUTO 10007KT FEW016 A3015 RMK A01 P000 Follow KIMM on AV Mobile IMMOKALEE 118.525 239-657-2038
KINFFAA ID INF, AWOS-3, KINF 272355Z AUTO 13003KT 7SM CLR 27/25 A2993 RMK AO2 Follow KINF on AV Mobile INVERNESS 119.975 352-341-0264
KX84ICAO ID KX84 Islamorada Coast Guard Station
KHEGFAA ID HEG, AWOS-3 JACKSONVILLE 119.275 904-695-0334
KCRGFAA ID CRG, ASOS, KCRG 272353Z 15005KT 10SM CLR 28/23 A2993 RMK AO2 SLP134 T02780233 10317 20278 50005 Follow KCRG on AV Mobile JACKSONVILLE CRAIG MUN 904-646-4670
KJAXFAA ID JAX, ASOS, KJAX 272356Z 15004KT 10SM FEW032 FEW090 SCT150 BKN250 28/23 A2993 Follow KJAX on AV Mobile JACKSONVILLE INTERNATIONAL 904-741-4304
KNIPFAA ID NIP, KNIP 272353Z 13008KT 10SM FEW045 SCT100 BKN250 31/23 A2993 RMK AO2 SLP132 CB DSNT SW T2 SET T03060228 10333 20306 50006 $ Follow KNIP on AV Mobile JACKSONVILLE NAVAL AIR STN
KVQQFAA ID VQQ, AWOS-3, KVQQ 272350Z 12006KT 10SM CLR 28/24 A2994 Follow KVQQ on AV Mobile Jacksonville, Cecil Field Airport 125.275 904-778-6934
KNENFAA ID NEN NOLF WHITEHOUSE FIELD, FL
KX80ICAO ID KX80 Jupiter Inlet Coast Guard Station
KEYWFAA ID EYW, ASOS, KEYW 272353Z 00000KT 10SM CLR 28/23 A2994 Follow KEYW on AV Mobile KEY WEST INTERNATIONAL AIRPORT 119.65 305-292-4046
KNQXFAA ID NQX, KNQX 272353Z 06004KT 10SM FEW025 SCT150 BKN250 28/23 A2994 RMK AO2 SLP137 60005 T02780228 10300 20250 56003 $ Follow KNQX on AV Mobile KEY WEST NAVAL AIR STATION
K42JFAA ID 42J, AWOS-3, K42J 272355Z AUTO 21005KT 7SM FEW030 SCT041 27/25 A2995 RMK AO1 TSNO Follow K42J on AV Mobile KEYSTONE HEIGHTS 124.275 352-473-8273
KLCQFAA ID LCQ, AWOS-3, KLCQ 272355Z AUTO 00000KT 10SM SCT038 SCT046 27/25 A2994 RMK AO2 LTG DSNT E AND SE Follow KLCQ on AV Mobile LAKE CITY 120.675 386-754-9366
X07FAA ID X07, AWOS-3, KDUC 280005Z AUTO 15003KT 10SM 39/08 A2990 Follow  on AV Mobile LAKE WALES 124.225 863-678-1334
KX81ICAO ID KX81 Lake Worth Inlet
KLALFAA ID LAL, AWOS-3PT, KLAL 272352Z 14004KT 10SM FEW150 BKN250 27/24 A2995 Follow KLAL on AV Mobile Lakeland Regional 118.025 863-834-2030
KLEEFAA ID LEE, ASOS, KLEE 272353Z AUTO 14006KT 10SM CLR 27/21 A2994 RMK AO2 SLP139 60000 T02720211 10300 20272 50008 Follow KLEE on AV Mobile LEESBURG REGIONAL AIRPORT 134.325 352-787-1565
24JFAA ID 24J, AWOS-3, KDUC 280005Z AUTO 15003KT 10SM 39/08 A2990 Follow  on AV Mobile LIVE OAK 118.225 386-362-1731
KX88ICAO ID KX88 Marathon Coast Guard Station
KMTHFAA ID MTH, ASOS, KMTH 272353Z AUTO VRB04KT 10SM CLR 29/24 A2994 RMK AO2 SLP138 T02940239 10328 20294 53003 Follow KMTH on AV Mobile MARATHON AIRPORT 135.525 305-743-8373
KMKYFAA ID MKY, AWOS-3, KMKY 172115Z AUTO 08010KT 1/2SM TS OVC010 24/22 A3004 RMK AO1 LTG DSNT ALQDS P0136 Follow KMKY on AV Mobile MARCO ISLAND 120.075 239-394-8187
KMAIFAA ID MAI, ASOS, KMAI 272353Z AUTO 09003KT 10SM CLR 31/14 A2991 RMK AO2 SLP127 T03110139 10339 20311 51007 Follow KMAI on AV Mobile MARIANNA MUNICIPAL AIRPORT 133.525 850-482-6082
KHRTFAA ID HRT, KHRT 272358Z AUTO 23002KT 10SM CLR 28/17 A2993 RMK AO2 SLP137 T02770167 10297 20277 $ Follow KHRT on AV Mobile Hurlburt Field
KNRBFAA ID NRB, KNRB 272352Z 15006KT 10SM FEW030 SCT150 BKN250 28/24 A2993 RMK AO2 SLP134 T2 SET T02780239 10306 20278 50004 $ Follow KNRB on AV Mobile MAYPORT NAVAL AIR FACILITY
KMLBFAA ID MLB, ASOS, KMLB 272353Z 00000KT 10SM CLR 26/23 A2995 Follow KMLB on AV Mobile MELBOURNE INTERNATIONAL 321-723-7403
KCOIFAA ID COI, AWOS-3 Merritt Island, Merritt Island Airport 119.025 321-986-8864
KTNTFAA ID TNT, AWOS-3 MIAMI 119.075 (239) 695-9198
KX87ICAO ID KX87 Miami Beach Coast Guard Station
KAMXICAO ID KAMX Miami Nexrad
KTMBFAA ID TMB, ASOS, KTMB 272353Z 16006KT 10SM CLR 28/22 A2994 Follow KTMB on AV Mobile KENDALL-TAMIAMI EXEC AIRPORT 305-235-1332
KMIAFAA ID MIA, ASOS, KMIA 272353Z 12007KT 10SM FEW040 SCT140 BKN250 28/22 A2995 Follow KMIA on AV Mobile MIAMI INTERNATIONAL AIRPORT 305-870-0235
KOPFFAA ID OPF, KOPF 272353Z 13006KT 10SM CLR 28/23 A2995 Follow KOPF on AV Mobile MIAMI OPA LOCKA AIRPORT
KNFJFAA ID NFJ CHOCTAW, WHITING FIELD, NOLF
KNSEFAA ID NSE, KNSE 272356Z 21006KT 10SM SCT065 27/18 A2994 RMK AO2 SLP124 T02670183 10328 20267 53009 $ Follow KNSE on AV Mobile MILTON WHITING FIELD (NORTH)
KNDZFAA ID NDZ, KNDZ 272256Z 21006KT 10SM FEW060 29/19 A2993 RMK AO2 SLP119 T02940189 $ Follow KNDZ on AV Mobile MILTON WHITING FIELD (SOUTH)
KAPFFAA ID APF, ASOS, KAPF 272353Z 00000KT 10SM FEW025 29/23 A2993 Follow KAPF on AV Mobile NAPLES MUNICIPAL AIRPORT 239-643-9886
KRRFICAO ID KRRF New Port Richey, Tampa Bay Executive Airport
KEVBFAA ID EVB, AWOS-3, KEVB 272347Z 26006KT 10SM BKN080 25/23 A2995 Follow KEVB on AV Mobile New Smyrna Beach, New Smyrna Beach Municipal Airport 124.625 386-409-4705
KOCFFAA ID OCF, AWOS-3, KOCF 272250Z 16005KT 10SM SCT030 28/22 A2994 Follow KOCF on AV Mobile Ocala, Ocala International Airport-Jim Taylor Field 128.125 352-237-8525
KOBEFAA ID OBE, AWOS-3, KOBE 272355Z AUTO 00000KT 10SM CLR 24/22 A2996 RMK AO2 LTG DSNT E PWINO Follow KOBE on AV Mobile Okeechobee County Airport 118.675 863-467-1148
KORLFAA ID ORL, ASOS, KORL 272353Z 11004KT 10SM CLR 26/22 A2994 RMK AO2 SLP143 60014 T02560222 10278 20233 51005 Follow KORL on AV Mobile ORLANDO EXECUTIVE AIRPORT 407-658-6753
KMCOFAA ID MCO, ASOS, KMCO 272353Z 13003KT 10SM FEW140 BKN250 26/22 A2995 Follow KMCO on AV Mobile ORLANDO INTERNATIONAL AIRPORT 407-855-5235
KSFBFAA ID SFB, ASOS, KSFB 272353Z 12005KT 10SM CLR 26/23 A2994 Follow KSFB on AV Mobile ORLANDO SANFORD AIRPORT 407-321-9384
KISMFAA ID ISM, AWOS-3, KISM 272350Z 00000KT 10SM FEW120 26/23 A2995 Follow KISM on AV Mobile Orlando, Kissimmee Municipal Airport 128.775 407-847-0533
KOMNFAA ID OMN, AWOS-3, KOMN 272250Z 00000KT 7SM SKC 28/23 A2994 RMK LAST Follow KOMN on AV Mobile Ormond Beach, Ormond Beach Municipal Airport 118.475 386-615-7084
28JFAA ID 28J, AWOS-3, KDUC 280005Z AUTO 15003KT 10SM 39/08 A2990 Follow  on AV Mobile PALATKA 119.92 386-312-2212
KFINFAA ID FIN, AWOS-3, KFIN 272355Z AUTO 16003KT 10SM CLR 26/23 A2993 RMK AO2 LTG DSNT NW T02610231 10274 20255 Follow KFIN on AV Mobile PALM COAST 128.325 386-437-7334
KECPFAA ID ECP, ASOS, KECP 272353Z 23005KT 10SM CLR 27/18 A2992 Follow KECP on AV Mobile PANAMA CITY 119.975 850-235-7857
KPFNICAO ID KPFN, KPFN 030253Z VRB03KT 10SM FEW023 25/23 A2989 Follow KPFN on AV Mobile PANAMA CITY-BAY CTY INTERNATIONAL
KPAMFAA ID PAM, KPAM 272358Z AUTO 29008KT 10SM CLR 28/18 A2992 RMK AO2 SLP135 T02760181 10310 20276 403100202 $ Follow KPAM on AV Mobile Tyndall Air Force Base
KPNSFAA ID PNS, ASOS, KPNS 272353Z 21006KT 10SM CLR 27/18 A2993 Follow KPNS on AV Mobile PENSACOLA REGIONAL AIRPORT 850-436-4799
KNPAFAA ID NPA, KNPA 272356Z 23004KT 10SM FEW050 26/19 A2993 RMK AO2 SLP135 T02610189 10289 20261 53002 Follow KNPA on AV Mobile Pensacola, Naval Air Station
K40JFAA ID 40J, AWOS-3PT, K40J 272355Z AUTO 00000KT 10SM SCT060 27/17 A2993 RMK AO2 T02700172 10331 20270 Follow K40J on AV Mobile PERRY-FOLEY AIRPORT 118.375 850-838-3526
FA54FAA ID FA54, Belfort CORAL CREEK
KPCMFAA ID PCM, AWOS-3, KPCM 272355Z AUTO 14004KT 10SM CLR 28/25 A2996 RMK AO2 Follow KPCM on AV Mobile Plant City, Plant City Municipal Airport 120.025 813-764-8259
KPMPFAA ID PMP, ASOS, KPMP 272353Z 07004KT 10SM CLR 27/22 A2995 RMK AO2 SLP142 T02720222 10306 20272 55004 Follow KPMP on AV Mobile POMPANO BEACH AIRPARK 954-783-3720
K1J3ICAO ID K1J3 Ponce De Leon Inlet
KPGDFAA ID PGD, ASOS, KPGD 272353Z AUTO 00000KT 10SM CLR 27/25 A2995 RMK AO2 SLP143 60000 T02670250 10283 20244 53004 Follow KPGD on AV Mobile PUNTA GORDA CHARLOTTE COUNTY 135.675 941-639-0076
2J9FAA ID 2J9, AWOS-3, KDUC 280005Z AUTO 15003KT 10SM 39/08 A2990 Follow  on AV Mobile QUINCY 118.975 (850) 627-6264
K1J5ICAO ID K1J5 Santa Rosa Coast Guard Station
KSRQFAA ID SRQ, ASOS, KSRQ 272353Z 13005KT 10SM CLR 27/22 A2992 Follow KSRQ on AV Mobile SARASOTA/BRADENTON INTERNATIONAL . 124.375 941-359-0117
KSEFFAA ID SEF, AWOS-3 SEBRING 119.475 863-655-6424
KSGJFAA ID SGJ, AWOS-3, KSGJ 272358Z 16005KT 10SM CLR 27/24 A2994 RMK AO2 SLP137 T02720239 10300 20272 50003 Follow KSGJ on AV Mobile St. Augustine, St. Augustine Airport 904-824-7084
KPIEFAA ID PIE, ASOS, KPIE 272353Z 00000KT 10SM CLR 28/24 A2993 Follow KPIE on AV Mobile ST PETERSBURG/CLEARWATER 727-531-3456
KSPGFAA ID SPG, ASOS, KSPG 272353Z 17006KT 10SM FEW027 FEW032 29/23 A2991 RMK AO2 SLP129 T02940228 10294 20272 53006 Follow KSPG on AV Mobile ST PETERSBURG WHITTED AIRPORT 118.875 727-821-4334
KSUAFAA ID SUA, AWOS-3, KSUA 272355Z AUTO 00000KT 25/23 A2997 RMK AO2 LTG DSNT E PWINO Follow KSUA on AV Mobile Stuart, Witham Field Airport 772-692-7399
KTLHFAA ID TLH, ASOS, KTLH 272353Z 19006KT 10SM BKN070 BKN250 31/21 A2992 Follow KTLH on AV Mobile TALLAHASSEE REGIONAL AIRPORT 850-576-3665
KTBWICAO ID KTBW Tampa Bay Area
KMCFFAA ID MCF, KMCF 272358Z AUTO 14006KT 10SM CLR 28/24 A2993 RMK AO2 SLP138 T02820243 10297 20265 Follow KMCF on AV Mobile Macdill Air Force Base, Fl.
KTPAFAA ID TPA, ASOS, KTPA 272353Z 14004KT 10SM FEW030 FEW130 SCT250 29/21 A2994 Follow KTPA on AV Mobile TAMPA INTERNATIONAL AIRPORT 813-873-7228
KTPFFAA ID TPF, AWOS-3, KTPF 272355Z AUTO 16007KT 10SM CLR 30/22 A2994 RMK AO2 Follow KTPF on AV Mobile Tampa, Peter O Knight Airport 118.925 813-251-6824
KVDFFAA ID VDF, AWOS-3, KVDF 280015Z AUTO 00000KT 10SM CLR 28/23 A2994 RMK AO2 Follow KVDF on AV Mobile Tampa, Vandenberg Airport 121.125 813-630-0924
KVLGICAO ID KVLG The Villages
KVVGICAO ID KVVG, KVVG 272355Z AUTO 00000KT 10SM 28/22 A2984 RMK A01 Follow KVVG on AV Mobile The Villages
KX68ICAO ID KX68 Titusville, NASA Shuttle Landing Facility
KTIXFAA ID TIX, KTIX 272350Z 15004KT 7SM BKN120 24/23 A2996 Follow KTIX on AV Mobile Titusville
KX21FAA ID X21, AWOS-3 Titusville, Arthur Dunn Air Park 119.725 321-385-0383
KTTSFAA ID TTS, KTTS 272358Z AUTO 16004KT 10SM OVC140 25/24 A2994 RMK AO2 SLP143 60101 T02490235 10299 20232 Follow KTTS on AV Mobile Titusville, NASA Shuttle Landing Facility
KVPSFAA ID VPS, KVPS 272355Z 24004KT 10SM FEW050 28/18 A2994 RMK AO2A SLP139 T02790177 10303 20279 53005 $ Follow KVPS on AV Mobile Valparaiso / Eglin Air Force Base
KVNCFAA ID VNC, AWOS-3, KVNC 272355Z AUTO 12004KT 10SM CLR 27/24 A2994 RMK AO2 Follow KVNC on AV Mobile VENICE 119.275
KX90ICAO ID KX90 Venice Long Range Navigation
KVRBFAA ID VRB, ASOS, KVRB 272353Z 07004KT 10SM CLR 26/23 A2995 Follow KVRB on AV Mobile VERO BEACH MUNICIPAL AIRPORT 772-978-9535
F45FAA ID F45, AWOS-3, KDUC 280005Z AUTO 15003KT 10SM 39/08 A2990 Follow  on AV Mobile WEST PALM BEACH 119.975 561-630-6932
KLNAFAA ID LNA, AWOS-3 WEST PALM BEACH 119.925 561-964-0308
KPBIFAA ID PBI, ASOS, KPBI 272353Z 30005KT 10SM SCT034 SCT110 BKN210 24/23 A2997 Follow KPBI on AV Mobile PALM BEACH INTERNATIONAL 123.75 561-683-2548
FD38FAA ID FD38, Belfort WELLINGTON AERO CLUB
X60FAA ID X60, AWOS-3, KDUC 280005Z AUTO 15003KT 10SM 39/08 A2990 Follow  on AV Mobile WILLISTON 118.425 352-528-9949
KGIFFAA ID GIF, ASOS, KGIF 272353Z AUTO 11007KT 10SM CLR 26/23 A2996 RMK AO2 SLP143 T02560233 10283 20233 51007 Follow KGIF on AV Mobile WINTER HAVENS GILBERT AIRPORT 133.675 863-956-2097
KZPHFAA ID ZPH, ASOS, KZPH 100135Z AUTO 00000KT 7SM TSRA SCT020 SCT028 SCT046 22/22 A2999 RMK AO2 P0010 LTG DSNT SW THRU N Follow KZPH on AV Mobile ZEPHYRHILLS 118.975 813-780-0031

Click on the AV Mobile icon AV Mobile icon by any station to follow that AWOS feed on AirportView.net Mobile.

Garmin aera 796 $1999 at Avionics Specialists LLC
Bose A20 Aviation Headsets $995 at Avionics Specialists LLC